Time;durP1;ratioP1;P1;durP2;ratioP2;P2;SDS_P1;SDS_P2;PMS_P1;PMS_P2;Temp;Humidity;BMP_temperature;BMP_pressure;BME280_temperature;BME280_humidity;BME280_pressure;Samples;Min_cycle;Max_cycle;Signal;HPM_P1;HPM_P2
2022/06/20 00:02:23;;;;;;;6.57;2.13;;;;;;;12.78;67.15;100372.69;5137543;27;20114;-69
2022/06/20 00:04:52;;;;;;;8.95;2.38;;;;;;;12.61;67.66;100327.06;5137726;27;20074;-68
2022/06/20 00:07:19;;;;;;;9.20;2.58;;;;;;;12.34;68.49;100409.19;5137708;27;20054;-68
2022/06/20 00:09:47;;;;;;;8.13;2.20;;;;;;;12.36;68.85;100426.00;5137777;27;20471;-68
2022/06/20 00:12:18;;;;;;;11.95;2.55;;;;;;;12.46;68.14;100419.56;5137319;27;20086;-68
2022/06/20 00:14:47;;;;;;;8.50;2.03;;;;;;;12.11;68.55;100436.09;5138115;27;20498;-68
2022/06/20 00:17:14;;;;;;;11.75;2.53;;;;;;;12.37;68.27;100500.28;5137522;27;20134;-68
2022/06/20 00:19:42;;;;;;;8.80;2.53;;;;;;;12.73;67.32;100513.19;5137187;27;20090;-68
2022/06/20 00:22:10;;;;;;;10.73;2.38;;;;;;;12.49;67.29;100538.41;5137193;27;20054;-69
2022/06/20 00:24:38;;;;;;;9.85;2.25;;;;;;;12.52;67.37;100556.03;5137435;27;20089;-68
2022/06/20 00:27:10;;;;;;;9.60;2.22;;;;;;;12.44;67.39;100564.16;5137211;27;20051;-68
2022/06/20 00:29:39;;;;;;;8.43;2.25;;;;;;;12.59;67.05;100570.47;5137203;27;20089;-68
2022/06/20 00:32:08;;;;;;;7.35;2.08;;;;;;;13.18;65.96;100580.69;5137361;27;20086;-68
2022/06/20 00:34:34;;;;;;;9.25;2.22;;;;;;;13.34;64.51;100588.63;5137108;27;20458;-69
2022/06/20 00:37:01;;;;;;;13.20;2.53;;;;;;;13.88;63.33;100584.97;5137170;27;20086;-68
2022/06/20 00:39:28;;;;;;;11.98;2.35;;;;;;;14.01;62.36;100606.72;5137310;27;20055;-68
2022/06/20 00:42:02;;;;;;;9.15;2.30;;;;;;;14.17;61.41;100628.13;5138041;27;20137;-68
2022/06/20 00:44:34;;;;;;;7.93;2.80;;;;;;;13.82;62.46;100625.13;5137145;27;20098;-68
2022/06/20 00:47:06;;;;;;;8.15;2.38;;;;;;;14.17;61.44;100617.31;5137057;27;20471;-68
2022/06/20 00:49:43;;;;;;;10.38;2.75;;;;;;;14.32;61.07;100635.38;5136944;27;20078;-68
2022/06/20 00:52:13;;;;;;;10.65;3.15;;;;;;;13.90;62.36;100620.66;5136538;27;20138;-68
2022/06/20 00:54:47;;;;;;;14.80;2.50;;;;;;;13.46;64.99;100591.75;5135582;27;20129;-68
2022/06/20 00:57:19;;;;;;;9.52;2.47;;;;;;;12.75;67.72;100589.25;5136733;27;20147;-68
2022/06/20 00:59:51;;;;;;;9.23;2.50;;;;;;;12.63;68.48;100634.53;5136690;27;20080;-68
2022/06/20 01:02:27;;;;;;;9.07;3.20;;;;;;;12.54;70.32;100623.97;5136584;27;20406;-68
2022/06/20 01:04:59;;;;;;;16.85;3.97;;;;;;;12.27;70.92;100591.13;5136480;27;20057;-68
2022/06/20 01:07:35;;;;;;;15.48;4.90;;;;;;;11.93;72.04;100596.78;5136693;27;20050;-68
2022/06/20 01:10:04;;;;;;;15.10;3.97;;;;;;;11.70;74.18;100545.63;5136181;27;20078;-68
2022/06/20 01:12:41;;;;;;;14.38;4.80;;;;;;;11.57;74.97;100529.16;5136332;27;20126;-68
2022/06/20 01:15:19;;;;;;;11.60;4.82;;;;;;;11.59;75.28;100498.44;5136286;27;20135;-68
2022/06/20 01:17:47;;;;;;;13.10;5.53;;;;;;;11.42;77.03;100505.69;5136066;27;20046;-68
2022/06/20 01:20:17;;;;;;;12.05;5.25;;;;;;;11.31;79.36;100510.56;5136394;27;20074;-68
2022/06/20 01:23:01;;;;;;;17.13;5.63;;;;;;;11.57;78.66;100531.84;5136207;27;20047;-69
2022/06/20 01:25:53;;;;;;;20.95;5.72;;;;;;;11.33;80.32;100512.09;5123310;27;20151;-69
2022/06/20 01:28:26;;;;;;;15.48;5.88;;;;;;;11.46;80.00;100528.53;5115394;28;20054;-69
2022/06/20 01:30:53;;;;;;;11.27;4.68;;;;;;;11.90;77.92;100560.38;5115461;28;20079;-69
2022/06/20 01:33:22;;;;;;;9.68;6.05;;;;;;;11.96;78.57;100544.53;5115519;28;20138;-69
2022/06/20 01:38:36;;;;;;;21.65;11.20;;;;;;;11.48;82.44;100546.31;5115248;28;20475;-69
2022/06/20 01:43:48;;;;;;;25.45;13.25;;;;;;;11.46;83.30;100586.78;5115918;28;20071;-69
2022/06/20 01:46:16;;;;;;;24.65;11.25;;;;;;;11.45;83.05;100585.94;5115122;28;20052;-70
2022/06/20 01:48:49;;;;;;;23.10;11.52;;;;;;;11.67;82.09;100591.66;5114945;28;20047;-70
2022/06/20 01:51:20;;;;;;;21.92;9.93;;;;;;;11.72;82.64;100588.44;5115203;28;20087;-70
2022/06/20 01:53:49;;;;;;;21.10;9.48;;;;;;;11.92;80.60;100592.44;5115119;28;20130;-70
2022/06/20 01:56:19;;;;;;;19.05;8.82;;;;;;;12.06;79.46;100582.81;5115972;28;20467;-70
2022/06/20 01:58:51;;;;;;;15.85;7.88;;;;;;;11.89;80.02;100566.72;5114983;28;20134;-69
2022/06/20 02:01:17;;;;;;;;;;;;;;;12.12;77.73;100560.63;5115706;28;20138;-69
2022/06/20 02:03:47;;;;;;;12.57;6.00;;;;;;;12.17;77.63;100544.78;5115348;28;19985;-69
2022/06/20 02:06:18;;;;;;;11.90;5.68;;;;;;;11.99;77.63;100517.31;5115913;28;20146;-69
2022/06/20 02:08:50;;;;;;;14.52;4.70;;;;;;;11.80;78.88;100537.38;5115165;28;20101;-69
2022/06/20 02:11:24;;;;;;;20.02;5.40;;;;;;;11.72;79.06;100548.97;5115134;28;20047;-69
2022/06/20 02:13:57;;;;;;;11.27;5.15;;;;;;;11.86;76.89;100556.34;5116345;28;20459;-69
2022/06/20 02:16:26;;;;;;;15.52;5.70;;;;;;;11.75;78.17;100586.25;5115013;28;20138;-69
2022/06/20 02:18:58;;;;;;;12.23;5.60;;;;;;;11.75;79.03;100591.63;5115181;28;20085;-69
2022/06/20 02:21:28;;;;;;;14.70;5.05;;;;;;;12.39;74.89;100608.59;5115018;28;20134;-69
2022/06/20 02:24:02;;;;;;;13.70;6.00;;;;;;;12.73;72.53;100610.09;5115074;28;20137;-70
2022/06/20 02:26:30;;;;;;;17.23;7.03;;;;;;;12.50;74.24;100609.22;5115144;28;20043;-69
2022/06/20 02:29:03;;;;;;;14.55;6.72;;;;;;;12.17;74.54;100582.44;5115370;28;20051;-69
2022/06/20 02:31:30;;;;;;;19.50;6.47;;;;;;;11.81;74.54;100564.06;5115812;28;20131;-69
2022/06/20 02:33:57;;;;;;;18.70;6.68;;;;;;;11.85;75.30;100570.78;5114913;28;20054;-70
2022/06/20 02:36:24;;;;;;;21.55;6.57;;;;;;;11.88;76.07;100567.75;5114807;28;20494;-70
2022/06/20 02:38:52;;;;;;;16.55;6.38;;;;;;;12.01;75.39;100539.50;5115056;28;20134;-69
2022/06/20 02:41:23;;;;;;;11.45;5.82;;;;;;;11.99;76.05;100538.81;5114499;28;20079;-70
2022/06/20 02:43:57;;;;;;;18.52;6.03;;;;;;;12.06;76.49;100531.72;5114344;28;20078;-70
2022/06/20 02:46:27;;;;;;;17.92;6.18;;;;;;;11.96;76.29;100496.97;5114136;28;20059;-69
2022/06/20 02:48:56;;;;;;;14.27;6.20;;;;;;;11.76;76.15;100467.03;5114221;28;20122;-70
2022/06/20 02:51:32;;;;;;;18.10;6.53;;;;;;;11.66;75.90;100464.53;5114134;28;20567;-70
2022/06/20 02:54:02;;;;;;;13.90;6.40;;;;;;;11.52;77.15;100467.91;5114125;28;20474;-69
2022/06/20 02:56:33;;;;;;;17.83;7.00;;;;;;;11.56;77.90;100471.91;5114249;28;20079;-69
2022/06/20 02:59:11;;;;;;;14.60;6.63;;;;;;;11.58;77.65;100466.34;5114008;28;20130;-69
2022/06/20 03:01:45;;;;;;;14.70;6.13;;;;;;;11.73;76.90;100471.91;5114032;28;20089;-69
2022/06/20 03:04:12;;;;;;;19.77;5.68;;;;;;;11.57;75.39;100483.50;5114275;28;20518;-69
2022/06/20 03:06:51;;;;;;;13.13;4.72;;;;;;;11.49;74.51;100495.13;5113936;28;20134;-69
2022/06/20 03:09:25;;;;;;;17.15;5.32;;;;;;;11.46;74.47;100512.41;5114707;28;20457;-69
2022/06/20 03:11:52;;;;;;;21.45;5.35;;;;;;;11.52;74.79;100512.72;5113892;28;20130;-69
2022/06/20 03:14:21;;;;;;;16.27;4.70;;;;;;;11.61;73.87;100487.50;5114243;28;20139;-68
2022/06/20 03:16:48;;;;;;;13.07;4.90;;;;;;;11.58;74.60;100469.88;5114119;28;20078;-68
2022/06/20 03:19:22;;;;;;;19.02;5.25;;;;;;;11.56;75.01;100466.53;5117839;28;20036;-69
2022/06/20 03:21:50;;;;;;;20.40;6.10;;;;;;;11.56;74.48;100437.00;5117613;28;20083;-69
2022/06/20 03:24:21;;;;;;;10.50;4.57;;;;;;;11.57;74.29;100405.59;5117851;28;20054;-69
2022/06/20 03:26:50;;;;;;;14.50;4.43;;;;;;;11.49;74.01;100429.81;5117546;28;20043;-69
2022/06/20 03:29:19;;;;;;;13.52;5.32;;;;;;;11.43;74.29;100436.69;5117986;28;20180;-69
2022/06/20 03:31:46;;;;;;;15.85;5.15;;;;;;;11.56;74.83;100444.22;5117875;28;20098;-69
2022/06/20 03:34:13;;;;;;;16.92;4.72;;;;;;;11.58;74.85;100410.78;5118465;28;20086;-69
2022/06/20 03:36:46;;;;;;;12.30;4.65;;;;;;;11.65;75.05;100392.09;5118414;28;20075;-69
2022/06/20 03:39:15;;;;;;;14.73;4.45;;;;;;;11.49;75.32;100406.47;5117347;28;20082;-69
2022/06/20 03:41:42;;;;;;;13.10;4.10;;;;;;;11.20;75.78;100394.44;5118193;28;20483;-69
2022/06/20 03:44:29;;;;;;;9.32;3.53;;;;;;;11.11;76.27;100395.50;5117819;28;20071;-69
2022/06/20 03:47:06;;;;;;;14.25;3.78;;;;;;;11.16;77.00;100395.81;5117155;28;20451;-69
2022/06/20 03:49:50;;;;;;;12.65;4.20;;;;;;;11.15;76.12;100390.63;5117116;28;20079;-69
2022/06/20 03:52:25;;;;;;;12.40;4.50;;;;;;;11.26;75.59;100413.59;5117001;28;20052;-69
2022/06/20 03:55:04;;;;;;;10.57;4.00;;;;;;;11.22;74.78;100431.88;5117283;28;20083;-69
2022/06/20 03:57:54;;;;;;;13.95;4.40;;;;;;;11.44;74.40;100409.66;5116930;28;20130;-69
2022/06/20 04:00:36;;;;;;;7.75;3.40;;;;;;;11.42;73.39;100406.31;5117247;28;20052;-69
2022/06/20 04:03:24;;;;;;;10.05;3.75;;;;;;;11.49;73.32;100413.69;5117285;28;20052;-69
2022/06/20 04:05:58;;;;;;;8.77;3.10;;;;;;;11.48;72.83;100410.13;5117619;28;20089;-69
2022/06/20 04:11:25;;;;;;;15.07;4.20;;;;;;;11.65;72.76;100418.97;5117138;28;20077;-69
2022/06/20 04:14:34;;;;;;;11.55;3.78;;;;;;;11.80;72.22;100414.59;5117681;28;20112;-69
2022/06/20 04:19:59;;;;;;;12.73;4.45;;;;;;;11.80;71.49;100389.56;5116621;28;20087;-69
2022/06/20 04:22:32;;;;;;;7.47;3.63;;;;;;;11.81;71.24;100388.53;5116823;28;20114;-69
2022/06/20 04:25:15;;;;;;;17.95;4.10;;;;;;;11.89;71.68;100393.84;5116618;27;20087;-69
2022/06/20 04:27:51;;;;;;;10.70;3.90;;;;;;;12.05;70.75;100409.06;5116498;28;20090;-69
2022/06/20 04:30:35;;;;;;;11.48;4.15;;;;;;;11.83;70.74;100384.66;5115340;28;20142;-69
2022/06/20 04:33:15;;;;;;;11.80;3.80;;;;;;;11.80;70.59;100395.78;5116810;28;20118;-69
2022/06/20 04:36:22;;;;;;;14.02;4.15;;;;;;;11.72;70.67;100417.28;5116642;28;20071;-69
2022/06/20 04:39:00;;;;;;;12.85;3.45;;;;;;;11.71;71.09;100428.22;5081569;28;20452;-69
2022/06/20 04:41:35;;;;;;;11.27;3.78;;;;;;;11.59;71.34;100417.84;5116689;28;20114;-69
2022/06/20 04:44:12;;;;;;;9.27;3.22;;;;;;;11.52;72.06;100402.56;5116667;28;20138;-69
2022/06/20 04:46:51;;;;;;;7.15;3.10;;;;;;;11.28;72.58;100368.63;5116539;28;20444;-69
2022/06/20 04:49:18;;;;;;;9.75;4.10;;;;;;;11.12;74.78;100375.69;5116597;28;20093;-69
2022/06/20 04:51:49;;;;;;;14.35;3.53;;;;;;;11.02;75.59;100379.59;5116541;28;20104;-69
2022/06/20 04:54:21;;;;;;;17.43;4.03;;;;;;;10.90;75.57;100396.06;5116954;28;20071;-69
2022/06/20 04:56:53;;;;;;;12.23;4.30;;;;;;;11.09;77.16;100385.94;5117145;28;20082;-69
2022/06/20 04:59:24;;;;;;;13.95;3.60;;;;;;;10.95;78.47;100406.25;5116099;28;20054;-70
2022/06/20 05:01:50;;;;;;;13.30;4.60;;;;;;;10.82;79.37;100411.31;5116030;28;20134;-69
2022/06/20 05:04:23;;;;;;;12.20;4.05;;;;;;;10.86;81.01;100434.97;5116332;28;20495;-69
2022/06/20 05:06:53;;;;;;;14.50;4.65;;;;;;;10.95;82.66;100419.69;5115745;28;20052;-69
2022/06/20 05:09:29;;;;;;;15.10;4.43;;;;;;;11.00;83.37;100452.25;5116005;28;20078;-68
2022/06/20 05:12:12;;;;;;;16.48;5.18;;;;;;;11.04;84.16;100466.16;5116179;28;20134;-69
2022/06/20 05:14:51;;;;;;;15.10;5.53;;;;;;;11.09;85.29;100455.75;5116135;28;20142;-69
2022/06/20 05:17:23;;;;;;;13.93;5.40;;;;;;;11.14;86.08;100464.13;5116179;28;20090;-68
2022/06/20 05:19:55;;;;;;;36.45;21.02;;;;;;;11.14;85.23;100472.19;5116023;28;20456;-70
2022/06/20 05:22:26;;;;;;;;;;;;;;;11.19;85.68;100472.50;5116474;28;20122;-69
2022/06/20 05:24:55;;;;;;;17.55;5.10;;;;;;;11.14;86.26;100477.56;5115867;28;20022;-68
2022/06/20 05:27:29;;;;;;;17.95;5.13;;;;;;;11.12;86.50;100493.81;5116145;28;20138;-68
2022/06/20 05:30:04;;;;;;;15.50;4.72;;;;;;;11.17;86.97;100507.59;5116349;28;20135;-68
2022/06/20 05:32:38;;;;;;;22.05;5.72;;;;;;;11.14;87.14;100532.09;5115615;28;20048;-68
2022/06/20 05:35:15;;;;;;;20.60;6.43;;;;;;;11.16;87.88;100588.28;5116617;28;20094;-67
2022/06/20 05:37:59;;;;;;;17.45;6.13;;;;;;;11.52;86.05;100638.97;5115718;28;20506;-68
2022/06/20 05:40:36;;;;;;;14.95;5.45;;;;;;;11.35;87.00;100609.47;5114686;28;20142;-67
2022/06/20 05:43:04;;;;;;;20.58;5.53;;;;;;;11.29;87.75;100591.31;5115435;28;20134;-67
2022/06/20 05:45:31;;;;;;;20.98;6.60;;;;;;;11.27;88.30;100595.19;5115312;28;20086;-67
2022/06/20 05:48:02;;;;;;;15.30;5.57;;;;;;;11.22;88.16;100591.16;5115579;28;20447;-68
2022/06/20 05:50:52;;;;;;;16.25;5.95;;;;;;;11.18;89.18;100618.50;5115193;28;20138;-67
2022/06/20 05:53:48;;;;;;;22.52;8.00;;;;;;;11.19;90.19;100604.06;5115171;28;20083;-67
2022/06/20 05:56:24;;;;;;;25.38;8.00;;;;;;;11.11;90.93;100604.09;5115748;28;20075;-67
2022/06/20 05:58:53;;;;;;;19.75;7.43;;;;;;;11.04;91.28;100598.53;5115032;28;20130;-68
2022/06/20 06:01:30;;;;;;;16.63;6.70;;;;;;;11.01;91.26;100584.59;5114905;28;20471;-68
2022/06/20 06:04:32;;;;;;;23.30;7.63;;;;;;;10.97;91.73;100579.56;5115043;28;20511;-68
2022/06/20 06:07:05;;;;;;;;;;;;;;;10.97;92.81;100503.56;5110514;28;20086;-68
2022/06/20 06:09:59;;;;;;;21.10;7.65;;;;;;;10.15;100.00;100296.16;5114856;28;19978;-69
2022/06/20 06:12:33;;;;;;;26.63;7.68;;;;;;;12.57;85.84;100331.16;5114727;28;20518;-67
2022/06/20 06:15:05;;;;;;;16.30;8.98;;;;;;;10.70;95.58;100271.31;5114636;28;20071;-64
2022/06/20 06:17:50;;;;;;;22.00;10.55;;;;;;;10.53;95.87;100248.22;5114608;28;20171;-65
2022/06/20 06:20:22;;;;;;;24.75;10.88;;;;;;;13.48;80.48;100314.81;5114499;28;20040;-65
2022/06/20 06:22:56;;;;;;;28.83;10.82;;;;;;;10.59;93.47;100269.84;5115440;28;20439;-65
2022/06/20 06:25:27;;;;;;;26.73;11.68;;;;;;;10.90;94.89;100288.69;5114278;28;20087;-65
2022/06/20 06:28:01;;;;;;;32.40;13.77;;;;;;;10.63;95.45;100308.72;5114453;28;20043;-66
2022/06/20 06:30:32;;;;;;;33.60;13.13;;;;;;;10.65;96.18;100335.38;5114792;28;20134;-66
2022/06/20 06:33:09;;;;;;;30.75;14.10;;;;;;;10.62;95.89;100358.03;5114017;28;20047;-66
2022/06/20 06:35:51;;;;;;;25.38;13.23;;;;;;;10.76;96.18;100385.19;5114327;28;20058;-66
2022/06/20 06:38:37;;;;;;;36.50;16.30;;;;;;;10.95;96.74;100396.38;5114335;28;20047;-66
2022/06/20 06:41:20;;;;;;;33.83;16.60;;;;;;;11.06;97.72;100397.00;5114590;28;20138;-66
2022/06/20 06:43:51;;;;;;;37.80;17.23;;;;;;;11.08;98.20;100398.53;5096014;28;20051;-66
2022/06/20 06:46:25;;;;;;;33.75;15.48;;;;;;;10.95;96.10;100393.69;5095842;28;20051;-66
2022/06/20 06:49:12;;;;;;;37.78;14.80;;;;;;;10.77;95.87;100381.47;5114285;28;20479;-66
2022/06/20 06:52:11;;;;;;;26.00;13.63;;;;;;;10.89;97.20;100346.03;5113966;28;20147;-66
2022/06/20 06:54:40;;;;;;;22.85;12.70;;;;;;;10.98;95.78;100341.50;5109352;28;20048;-66
2022/06/20 06:57:16;;;;;;;22.05;13.10;;;;;;;11.29;94.91;100332.69;5114203;28;20205;-66
2022/06/20 06:59:50;;;;;;;27.08;13.00;;;;;;;11.43;94.33;100313.13;5113592;28;20127;-66
2022/06/20 07:02:25;;;;;;;23.42;12.50;;;;;;;11.40;92.52;100318.84;5113872;28;20450;-66
2022/06/20 07:05:14;;;;;;;23.10;12.52;;;;;;;11.82;91.50;100318.47;5113954;28;20403;-66
2022/06/20 07:07:43;;;;;;;22.77;11.00;;;;;;;11.68;90.21;100321.91;5114475;28;20079;-65
2022/06/20 07:10:20;;;;;;;20.02;11.60;;;;;;;11.35;91.76;100300.59;5113745;28;20048;-67
2022/06/20 07:12:51;;;;;;;19.05;10.60;;;;;;;11.25;91.86;100294.59;5114110;28;20087;-67
2022/06/20 07:15:23;;;;;;;14.17;7.80;;;;;;;11.25;92.07;100294.59;5113919;28;20139;-66
2022/06/20 07:18:02;;;;;;;21.73;10.40;;;;;;;11.44;89.42;100322.88;5114630;28;20463;-67
2022/06/20 07:20:33;;;;;;;15.75;7.18;;;;;;;11.15;87.76;100335.06;5114075;28;20079;-67
2022/06/20 07:23:05;;;;;;;19.35;8.05;;;;;;;11.07;89.12;100355.75;5114027;28;20134;-67
2022/06/20 07:25:35;;;;;;;;;;;;;;;11.05;88.65;100355.09;5113948;28;20102;-67
2022/06/20 07:28:23;;;;;;;16.85;8.18;;;;;;;11.15;88.83;100343.13;5113367;28;20022;-68
2022/06/20 07:30:57;;;;;;;18.90;7.88;;;;;;;11.10;88.76;100367.00;5113766;28;20142;-68
2022/06/20 07:33:38;;;;;;;13.27;7.68;;;;;;;11.04;88.62;100375.72;5114308;28;20487;-68
2022/06/20 07:36:09;;;;;;;11.82;7.53;;;;;;;11.19;88.20;100383.91;5113876;28;20087;-68
2022/06/20 07:38:51;;;;;;;11.63;5.30;;;;;;;11.49;87.64;100414.53;5113928;28;20047;-68
2022/06/20 07:41:24;;;;;;;17.33;8.57;;;;;;;11.67;88.05;100414.31;5114588;28;20071;-68
2022/06/20 07:44:05;;;;;;;14.43;7.45;;;;;;;11.57;88.14;100429.75;5113814;28;20123;-68
2022/06/20 07:46:47;;;;;;;14.68;7.75;;;;;;;11.58;86.84;100459.13;5113798;28;20051;-68
2022/06/20 07:49:24;;;;;;;12.88;7.50;;;;;;;11.48;87.24;100473.78;5113954;28;20044;-68
2022/06/20 07:51:56;;;;;;;14.65;7.15;;;;;;;11.52;88.45;100483.16;5113452;28;20143;-68
2022/06/20 07:54:31;;;;;;;18.10;8.70;;;;;;;11.73;88.93;100502.28;5113969;28;20048;-68
2022/06/20 07:57:04;;;;;;;13.82;6.85;;;;;;;11.86;89.20;100499.91;5114533;28;20434;-68
2022/06/20 07:59:37;;;;;;;15.73;7.85;;;;;;;12.09;88.35;100523.31;5113420;28;20134;-68
2022/06/20 08:02:18;;;;;;;16.95;7.65;;;;;;;12.21;88.23;100521.94;5113647;28;20047;-68
2022/06/20 08:04:46;;;;;;;12.98;7.57;;;;;;;12.33;87.18;100522.34;5116073;28;20047;-68
2022/06/20 08:07:38;;;;;;;11.90;7.00;;;;;;;12.36;87.77;100513.94;5116928;28;20048;-69
2022/06/20 08:10:10;;;;;;;10.43;6.65;;;;;;;12.52;86.88;100511.16;5117361;28;20071;-69
2022/06/20 08:13:11;;;;;;;9.90;5.75;;;;;;;12.71;85.33;100511.69;5117788;28;20044;-69
2022/06/20 08:16:02;;;;;;;15.07;6.72;;;;;;;13.07;82.53;100517.31;5116976;28;20137;-69
2022/06/20 08:18:29;;;;;;;10.05;6.13;;;;;;;13.02;83.03;100514.34;5117104;28;20130;-69
2022/06/20 08:21:11;;;;;;;13.80;7.85;;;;;;;12.99;82.19;100495.84;5117212;28;20094;-69
2022/06/20 08:23:45;;;;;;;13.50;6.80;;;;;;;12.79;82.47;100460.50;5117338;28;20581;-68
2022/06/20 08:26:19;;;;;;;17.83;7.82;;;;;;;12.73;83.02;100419.00;5116913;28;20146;-69
2022/06/20 08:28:55;;;;;;;14.70;8.63;;;;;;;12.43;83.14;100390.31;5116776;28;20083;-67
2022/06/20 08:31:30;;;;;;;18.23;8.63;;;;;;;12.06;82.79;100373.09;5117185;28;20126;-67
2022/06/20 08:34:03;;;;;;;12.98;8.45;;;;;;;11.73;84.02;100359.88;5116817;28;20059;-68
2022/06/20 08:36:44;;;;;;;13.35;9.45;;;;;;;11.73;85.23;100378.69;5116312;28;20079;-68
2022/06/20 08:39:29;;;;;;;15.05;9.35;;;;;;;11.79;84.78;100442.44;5116586;28;20050;-68
2022/06/20 08:42:28;;;;;;;16.45;9.02;;;;;;;11.74;85.75;100477.09;5116606;28;20546;-69
2022/06/20 08:45:22;;;;;;;15.48;9.45;;;;;;;11.89;86.42;100482.56;5061219;28;20045;-69
2022/06/20 08:48:10;;;;;;;24.45;13.10;;;;;;;12.21;85.54;100497.72;5116378;28;20120;-70
2022/06/20 08:51:18;;;;;;;13.38;8.73;;;;;;;12.39;84.11;100498.28;5116039;28;20139;-69
2022/06/20 08:54:03;;;;;;;15.60;8.75;;;;;;;12.55;82.79;100491.94;5116256;28;20549;-68
2022/06/20 08:56:39;;;;;;;19.90;12.25;;;;;;;12.62;83.30;100494.75;5116322;28;20078;-69
2022/06/20 08:59:37;;;;;;;16.70;9.15;;;;;;;12.60;81.65;100499.50;5116439;28;20143;-69
2022/06/20 09:02:26;;;;;;;13.48;7.55;;;;;;;12.55;80.99;100494.63;5116072;28;20138;-69
2022/06/20 09:05:02;;;;;;;15.55;7.03;;;;;;;12.54;80.36;100484.06;5115888;28;20055;-68
2022/06/20 09:08:05;;;;;;;16.52;8.05;;;;;;;12.72;80.92;100481.06;5097976;28;20043;-68
2022/06/20 09:11:00;;;;;;;13.27;6.65;;;;;;;12.50;81.81;100493.50;5116058;28;20490;-69
2022/06/20 09:13:59;;;;;;;13.73;6.93;;;;;;;12.41;82.33;100485.47;5116927;28;20062;-68
2022/06/20 09:16:41;;;;;;;18.95;6.63;;;;;;;12.46;82.22;100494.88;5110322;28;20047;-69
2022/06/20 09:19:14;;;;;;;12.38;7.22;;;;;;;12.53;81.99;100487.78;5116491;28;20134;-68
2022/06/20 09:21:52;;;;;;;10.98;6.88;;;;;;;12.57;81.01;100481.84;5116396;28;20108;-68
2022/06/20 09:24:37;;;;;;;15.95;7.05;;;;;;;13.02;79.03;100466.69;5115582;28;20139;-68
2022/06/20 09:27:03;;;;;;;11.98;6.93;;;;;;;12.62;80.07;100478.59;5115771;28;20134;-67
2022/06/20 09:29:36;;;;;;;14.05;6.85;;;;;;;12.53;80.66;100485.91;5115766;28;20511;-69
2022/06/20 09:32:20;;;;;;;10.23;5.72;;;;;;;12.68;80.21;100488.66;5115796;28;20094;-68
2022/06/20 09:35:19;;;;;;;15.95;6.60;;;;;;;12.75;79.18;100484.25;5115418;28;20057;-67
2022/06/20 09:38:19;;;;;;;9.52;6.50;;;;;;;12.88;79.04;100486.34;5115624;28;20075;-67
2022/06/20 09:41:06;;;;;;;7.82;4.30;;;;;;;12.58;77.23;100491.59;5058820;28;20067;-68
2022/06/20 09:43:54;;;;;;;7.00;4.80;;;;;;;12.33;77.41;100509.75;5115733;28;20058;-69
2022/06/20 09:46:32;;;;;;;15.43;5.88;;;;;;;12.51;76.60;100497.88;5097372;28;20134;-68
2022/06/20 09:49:05;;;;;;;8.85;5.55;;;;;;;12.24;77.59;100505.41;5115746;28;20138;-68
2022/06/20 09:51:52;;;;;;;10.38;5.50;;;;;;;12.34;77.67;100506.03;5115162;28;20130;-68
2022/06/20 09:54:48;;;;;;;9.40;5.78;;;;;;;12.63;77.30;100505.34;5114742;28;20092;-68
2022/06/20 09:57:44;;;;;;;9.60;5.63;;;;;;;12.52;77.32;100502.22;5115103;28;20127;-71
2022/06/20 10:00:22;;;;;;;12.32;5.65;;;;;;;12.55;77.58;100499.19;5114740;28;20044;-68
2022/06/20 10:03:12;;;;;;;11.45;5.07;;;;;;;12.61;78.06;100495.78;5115004;28;20052;-69
2022/06/20 10:05:51;;;;;;;10.20;5.53;;;;;;;12.72;77.91;100498.03;5115501;28;20380;-69
2022/06/20 10:08:43;;;;;;;10.52;4.80;;;;;;;12.72;77.25;100495.34;5114925;28;20090;-68
2022/06/20 10:11:13;;;;;;;;;;;;;;;12.96;76.22;100482.75;5115054;28;20076;-68
2022/06/20 10:13:48;;;;;;;10.48;5.18;;;;;;;13.07;75.68;100496.59;5115589;28;19920;-69
2022/06/20 10:16:20;;;;;;;11.43;5.90;;;;;;;13.16;75.51;100500.06;5114697;28;20082;-69
2022/06/20 10:18:53;;;;;;;11.50;6.25;;;;;;;13.23;75.60;100495.63;5115133;28;20070;-69
2022/06/20 10:21:30;;;;;;;10.35;5.13;;;;;;;13.31;75.88;100516.25;5114824;28;20071;-69
2022/06/20 10:24:09;;;;;;;9.68;5.55;;;;;;;13.38;75.17;100529.84;5115158;28;20073;-69
2022/06/20 10:27:01;;;;;;;11.45;4.88;;;;;;;12.75;77.44;100529.19;5114903;28;20483;-70
2022/06/20 10:29:30;;;;;;;;;;;;;;;12.81;77.90;100526.63;5115114;28;20229;-69
2022/06/20 10:32:16;;;;;;;13.05;5.88;;;;;;;13.00;76.88;100525.28;5114550;28;20402;-69
2022/06/20 10:34:53;;;;;;;10.15;5.55;;;;;;;13.01;77.00;100532.34;5115234;28;20438;-69
2022/06/20 10:37:33;;;;;;;19.70;5.82;;;;;;;12.96;78.01;100529.34;5114814;28;20134;-69
2022/06/20 10:40:24;;;;;;;12.47;5.83;;;;;;;13.03;79.00;100541.06;5114409;28;20047;-68
2022/06/20 10:43:10;;;;;;;14.38;5.85;;;;;;;12.77;80.30;100538.75;5114457;28;20072;-68
2022/06/20 10:45:48;;;;;;;11.73;5.15;;;;;;;13.03;79.21;100554.53;5114317;28;20087;-69
2022/06/20 10:48:56;;;;;;;12.02;5.70;;;;;;;13.39;77.34;100555.75;5114850;28;20083;-69
2022/06/20 10:51:40;;;;;;;16.08;5.80;;;;;;;13.41;76.98;100549.16;5080099;28;20047;-69
2022/06/20 10:54:09;;;;;;;13.82;6.32;;;;;;;13.40;77.19;100547.50;5114543;28;20139;-68
2022/06/20 10:57:04;;;;;;;10.30;5.47;;;;;;;13.38;77.57;100546.00;5113826;28;20047;-69
2022/06/20 11:00:00;;;;;;;12.60;6.60;;;;;;;13.35;78.49;100542.66;5114095;28;20550;-69
2022/06/20 11:03:03;;;;;;;13.98;6.10;;;;;;;13.32;78.93;100558.38;5114255;28;20484;-69
2022/06/20 11:05:39;;;;;;;15.57;6.90;;;;;;;13.13;80.01;100546.22;5114315;28;20520;-69
2022/06/20 11:08:24;;;;;;;11.85;5.63;;;;;;;13.01;79.73;100531.53;5114412;28;20071;-68
2022/06/20 11:10:58;;;;;;;12.30;5.40;;;;;;;12.84;80.41;100528.94;5114437;28;20052;-68
2022/06/20 11:13:41;;;;;;;11.10;5.13;;;;;;;12.67;81.67;100530.06;5114386;28;20494;-68
2022/06/20 11:16:26;;;;;;;9.35;4.60;;;;;;;12.95;80.26;100537.63;5113823;28;20051;-68
2022/06/20 11:18:55;;;;;;;11.00;4.70;;;;;;;12.96;80.39;100536.59;5114224;28;20135;-68
2022/06/20 11:21:47;;;;;;;12.98;4.75;;;;;;;12.88;80.78;100538.34;5114234;28;20039;-68
2022/06/20 11:24:28;;;;;;;10.70;5.40;;;;;;;13.09;80.14;100556.53;5114510;28;20101;-69
2022/06/20 11:26:58;;;;;;;;;;;;;;;13.20;79.57;100554.41;5115618;28;20455;-68
2022/06/20 11:29:42;;;;;;;10.27;4.75;;;;;;;13.20;79.76;100539.09;5114269;28;19955;-68
2022/06/20 11:32:15;;;;;;;9.52;4.70;;;;;;;13.23;79.81;100538.72;5114530;28;20056;-68
2022/06/20 11:35:30;;;;;;;8.48;4.88;;;;;;;13.26;79.70;100559.09;5114168;28;20050;-68
2022/06/20 11:38:23;;;;;;;8.20;3.70;;;;;;;13.22;79.55;100558.63;5011864;28;20046;-68
2022/06/20 11:41:28;;;;;;;10.55;4.25;;;;;;;13.25;79.30;100563.63;5015423;28;20544;-68
2022/06/20 11:44:06;;;;;;;10.50;3.95;;;;;;;13.33;78.70;100571.66;5010224;28;20062;-68
2022/06/20 11:46:57;;;;;;;5.88;3.28;;;;;;;13.25;78.44;100574.41;5015328;28;20054;-68
2022/06/20 11:49:50;;;;;;;9.65;3.60;;;;;;;13.29;78.60;100581.13;5015539;28;20053;-68
2022/06/20 11:52:23;;;;;;;8.35;4.22;;;;;;;13.27;78.75;100580.44;5015547;28;20088;-68
2022/06/20 11:55:12;;;;;;;16.63;4.03;;;;;;;13.24;78.94;100577.28;5014927;28;20474;-68
2022/06/20 11:57:49;;;;;;;19.48;4.72;;;;;;;13.31;78.56;100579.06;5014967;28;20081;-68
2022/06/20 12:00:29;;;;;;;10.60;3.33;;;;;;;13.35;77.72;100566.06;5015642;28;20045;-68
2022/06/20 12:03:11;;;;;;;5.13;3.15;;;;;;;13.34;77.83;100581.38;5015276;28;20593;-68
2022/06/20 12:05:45;;;;;;;3.80;2.33;;;;;;;13.47;76.10;100590.72;5015045;28;20054;-68
2022/06/20 12:08:15;;;;;;;6.88;2.67;;;;;;;13.32;77.18;100594.22;5032204;28;20054;-68
2022/06/20 12:10:53;;;;;;;5.60;3.63;;;;;;;13.27;77.00;100595.78;5117469;28;20054;-68
2022/06/20 12:13:33;;;;;;;6.63;3.10;;;;;;;13.26;77.29;100604.88;5116874;28;20138;-68
2022/06/20 12:16:18;;;;;;;5.78;3.63;;;;;;;13.19;78.07;100609.31;5117420;28;20427;-68
2022/06/20 12:23:18;;;;;;;6.43;2.70;;;;;;;13.26;77.80;100613.81;5116976;28;20075;-68